sensor_id;sensor_type;location;lat;lon;timestamp;pressure;altitude;pressure_sealevel;temperature;humidity
69780;BME280;57052;55.602;38.096;2024-01-15T00:00:42;98448.03;;;-6.82;66.88
69780;BME280;57052;55.602;38.096;2024-01-15T00:03:08;98445.19;;;-6.80;66.10
69780;BME280;57052;55.602;38.096;2024-01-15T00:05:35;98430.63;;;-6.89;66.72
69780;BME280;57052;55.602;38.096;2024-01-15T00:08:00;98424.97;;;-6.80;66.23
69780;BME280;57052;55.602;38.096;2024-01-15T00:10:26;98442.75;;;-6.75;66.75
69780;BME280;57052;55.602;38.096;2024-01-15T00:12:52;98433.06;;;-6.75;66.47
69780;BME280;57052;55.602;38.096;2024-01-15T00:15:17;98442.34;;;-6.72;66.79
69780;BME280;57052;55.602;38.096;2024-01-15T00:17:43;98436.28;;;-6.73;66.45
69780;BME280;57052;55.602;38.096;2024-01-15T00:20:09;98426.56;;;-6.72;66.31
69780;BME280;57052;55.602;38.096;2024-01-15T00:22:35;98424.31;;;-6.69;66.75
69780;BME280;57052;55.602;38.096;2024-01-15T00:25:02;98426.97;;;-6.69;66.46
69780;BME280;57052;55.602;38.096;2024-01-15T00:27:29;98419.69;;;-6.67;66.30
69780;BME280;57052;55.602;38.096;2024-01-15T00:29:55;98417.06;;;-6.67;66.42
69780;BME280;57052;55.602;38.096;2024-01-15T00:32:20;98413.22;;;-6.64;66.37
69780;BME280;57052;55.602;38.096;2024-01-15T00:34:46;98419.91;;;-6.62;66.58
69780;BME280;57052;55.602;38.096;2024-01-15T00:37:12;98405.94;;;-6.62;66.80
69780;BME280;57052;55.602;38.096;2024-01-15T00:39:38;98408.75;;;-6.64;67.01
69780;BME280;57052;55.602;38.096;2024-01-15T00:42:04;98400.84;;;-6.64;66.64
69780;BME280;57052;55.602;38.096;2024-01-15T00:44:30;98397.00;;;-6.61;66.62
69780;BME280;57052;55.602;38.096;2024-01-15T00:46:55;98391.75;;;-6.61;66.70
69780;BME280;57052;55.602;38.096;2024-01-15T00:49:21;98395.38;;;-6.56;67.02
69780;BME280;57052;55.602;38.096;2024-01-15T00:51:47;98402.06;;;-6.53;66.86
69780;BME280;57052;55.602;38.096;2024-01-15T00:54:13;98380.84;;;-6.65;66.37
69780;BME280;57052;55.602;38.096;2024-01-15T00:56:39;98399.03;;;-6.50;67.30
69780;BME280;57052;55.602;38.096;2024-01-15T00:59:04;98400.44;;;-6.47;67.31
69780;BME280;57052;55.602;38.096;2024-01-15T01:01:31;98380.00;;;-6.59;66.41
69780;BME280;57052;55.602;38.096;2024-01-15T01:03:56;98396.16;;;-6.48;66.69
69780;BME280;57052;55.602;38.096;2024-01-15T01:06:22;98396.97;;;-6.48;67.16
69780;BME280;57052;55.602;38.096;2024-01-15T01:08:48;98394.16;;;-6.46;67.03
69780;BME280;57052;55.602;38.096;2024-01-15T01:11:15;98390.91;;;-6.48;66.68
69780;BME280;57052;55.602;38.096;2024-01-15T01:13:41;98369.88;;;-6.55;67.18
69780;BME280;57052;55.602;38.096;2024-01-15T01:16:07;98379.78;;;-6.44;67.17
69780;BME280;57052;55.602;38.096;2024-01-15T01:18:32;98381.00;;;-6.46;67.33
69780;BME280;57052;55.602;38.096;2024-01-15T01:20:58;98387.47;;;-6.42;67.09
69780;BME280;57052;55.602;38.096;2024-01-15T01:23:24;98373.13;;;-6.46;66.96
69780;BME280;57052;55.602;38.096;2024-01-15T01:25:49;98376.53;;;-6.39;66.88
69780;BME280;57052;55.602;38.096;2024-01-15T01:28:15;98367.59;;;-6.38;67.39
69780;BME280;57052;55.602;38.096;2024-01-15T01:30:41;98365.78;;;-6.38;67.06
69780;BME280;57052;55.602;38.096;2024-01-15T01:33:07;98361.34;;;-6.37;67.50
69780;BME280;57052;55.602;38.096;2024-01-15T01:35:32;98360.34;;;-6.36;67.11
69780;BME280;57052;55.602;38.096;2024-01-15T01:37:58;98346.94;;;-6.35;67.82
69780;BME280;57052;55.602;38.096;2024-01-15T01:40:24;98358.06;;;-6.33;66.87
69780;BME280;57052;55.602;38.096;2024-01-15T01:42:50;98355.44;;;-6.33;67.45
69780;BME280;57052;55.602;38.096;2024-01-15T01:45:16;98355.44;;;-6.33;67.10
69780;BME280;57052;55.602;38.096;2024-01-15T01:47:42;98343.31;;;-6.34;67.07
69780;BME280;57052;55.602;38.096;2024-01-15T01:50:08;98347.13;;;-6.30;67.34
69780;BME280;57052;55.602;38.096;2024-01-15T01:52:34;98347.94;;;-6.29;67.06
69780;BME280;57052;55.602;38.096;2024-01-15T01:55:01;98331.78;;;-6.39;67.27
69780;BME280;57052;55.602;38.096;2024-01-15T01:57:31;98340.88;;;-6.29;67.07
69780;BME280;57052;55.602;38.096;2024-01-15T01:59:59;98344.91;;;-6.26;67.42
69780;BME280;57052;55.602;38.096;2024-01-15T02:02:25;98339.19;;;-6.23;67.53
69780;BME280;57052;55.602;38.096;2024-01-15T02:04:51;98335.56;;;-6.22;66.93
69780;BME280;57052;55.602;38.096;2024-01-15T02:07:17;98327.25;;;-6.19;67.48
69780;BME280;57052;55.602;38.096;2024-01-15T02:09:44;98322.81;;;-6.19;67.23
69780;BME280;57052;55.602;38.096;2024-01-15T02:12:10;98326.84;;;-6.16;67.31
69780;BME280;57052;55.602;38.096;2024-01-15T02:14:36;98326.41;;;-6.13;67.22
69780;BME280;57052;55.602;38.096;2024-01-15T02:17:03;98300.16;;;-6.26;67.04
69780;BME280;57052;55.602;38.096;2024-01-15T02:19:29;98317.50;;;-6.12;67.09
69780;BME280;57052;55.602;38.096;2024-01-15T02:21:55;98319.31;;;-6.13;67.26
69780;BME280;57052;55.602;38.096;2024-01-15T02:24:21;98316.28;;;-6.10;66.98
69780;BME280;57052;55.602;38.096;2024-01-15T02:26:47;98309.81;;;-6.14;67.34
69780;BME280;57052;55.602;38.096;2024-01-15T02:29:13;98306.56;;;-6.09;67.46
69780;BME280;57052;55.602;38.096;2024-01-15T02:31:40;98313.84;;;-6.11;66.92
69780;BME280;57052;55.602;38.096;2024-01-15T02:34:06;98311.22;;;-6.11;66.85
69780;BME280;57052;55.602;38.096;2024-01-15T02:36:31;98322.34;;;-6.09;67.33
69780;BME280;57052;55.602;38.096;2024-01-15T02:38:57;98315.88;;;-6.13;67.08
69780;BME280;57052;55.602;38.096;2024-01-15T02:41:23;98322.34;;;-6.09;67.74
69780;BME280;57052;55.602;38.096;2024-01-15T02:43:49;98322.94;;;-6.07;67.01
69780;BME280;57052;55.602;38.096;2024-01-15T02:46:14;98329.22;;;-6.08;67.48
69780;BME280;57052;55.602;38.096;2024-01-15T02:48:41;98323.75;;;-6.07;67.49
69780;BME280;57052;55.602;38.096;2024-01-15T02:51:07;98246.63;;;-6.52;67.61
69780;BME280;57052;55.602;38.096;2024-01-15T02:53:33;98316.44;;;-6.05;67.66
69780;BME280;57052;55.602;38.096;2024-01-15T02:55:59;98317.63;;;-6.01;68.07
69780;BME280;57052;55.602;38.096;2024-01-15T02:58:24;98319.84;;;-5.98;67.94
69780;BME280;57052;55.602;38.096;2024-01-15T03:00:50;98288.94;;;-6.09;67.61
69780;BME280;57052;55.602;38.096;2024-01-15T03:03:16;98313.13;;;-5.94;67.48
69780;BME280;57052;55.602;38.096;2024-01-15T03:05:41;98302.41;;;-5.92;67.83
69780;BME280;57052;55.602;38.096;2024-01-15T03:08:07;98305.22;;;-5.87;67.93
69780;BME280;57052;55.602;38.096;2024-01-15T03:10:33;98307.41;;;-5.84;67.85
69780;BME280;57052;55.602;38.096;2024-01-15T03:12:59;98307.16;;;-5.82;67.95
69780;BME280;57052;55.602;38.096;2024-01-15T03:15:24;98304.94;;;-5.79;68.26
69780;BME280;57052;55.602;38.096;2024-01-15T03:17:50;98302.66;;;-5.75;68.28
69780;BME280;57052;55.602;38.096;2024-01-15T03:20:16;98293.34;;;-5.71;68.04
69780;BME280;57052;55.602;38.096;2024-01-15T03:22:42;98291.88;;;-5.67;68.34
69780;BME280;57052;55.602;38.096;2024-01-15T03:25:07;98291.28;;;-5.69;68.39
69780;BME280;57052;55.602;38.096;2024-01-15T03:27:33;98292.03;;;-5.62;68.69
69780;BME280;57052;55.602;38.096;2024-01-15T03:29:59;98294.03;;;-5.58;68.61
69780;BME280;57052;55.602;38.096;2024-01-15T03:32:25;98292.22;;;-5.57;68.61
69780;BME280;57052;55.602;38.096;2024-01-15T03:34:50;98277.69;;;-5.66;68.48
69780;BME280;57052;55.602;38.096;2024-01-15T03:37:17;98293.00;;;-5.57;68.64
69780;BME280;57052;55.602;38.096;2024-01-15T03:39:43;98285.47;;;-5.53;68.82
69780;BME280;57052;55.602;38.096;2024-01-15T03:42:09;98290.31;;;-5.50;68.85
69780;BME280;57052;55.602;38.096;2024-01-15T03:44:35;98282.00;;;-5.47;68.78
69780;BME280;57052;55.602;38.096;2024-01-15T03:47:00;98280.75;;;-5.45;68.81
69780;BME280;57052;55.602;38.096;2024-01-15T03:49:26;98265.59;;;-5.49;68.71
69780;BME280;57052;55.602;38.096;2024-01-15T03:51:52;98255.84;;;-5.49;68.65
69780;BME280;57052;55.602;38.096;2024-01-15T03:54:17;98276.47;;;-5.39;68.90
69780;BME280;57052;55.602;38.096;2024-01-15T03:56:43;98276.19;;;-5.31;68.70
69780;BME280;57052;55.602;38.096;2024-01-15T03:59:09;98269.06;;;-5.31;68.66
69780;BME280;57052;55.602;38.096;2024-01-15T04:01:35;98275.31;;;-5.25;68.80
69780;BME280;57052;55.602;38.096;2024-01-15T04:04:00;98279.94;;;-5.21;68.50
69780;BME280;57052;55.602;38.096;2024-01-15T04:06:26;98271.00;;;-5.20;68.67
69780;BME280;57052;55.602;38.096;2024-01-15T04:08:51;98273.22;;;-5.16;68.52
69780;BME280;57052;55.602;38.096;2024-01-15T04:11:17;98275.41;;;-5.13;68.55
69780;BME280;57052;55.602;38.096;2024-01-15T04:13:43;98273.38;;;-5.11;68.44
69780;BME280;57052;55.602;38.096;2024-01-15T04:16:09;98268.69;;;-5.09;68.59
69780;BME280;57052;55.602;38.096;2024-01-15T04:18:34;98260.34;;;-5.06;68.47
69780;BME280;57052;55.602;38.096;2024-01-15T04:21:00;98267.22;;;-5.05;68.58
69780;BME280;57052;55.602;38.096;2024-01-15T04:23:26;98241.13;;;-5.13;68.33
69780;BME280;57052;55.602;38.096;2024-01-15T04:25:51;98263.91;;;-5.01;68.65
69780;BME280;57052;55.602;38.096;2024-01-15T04:28:17;98224.78;;;-5.22;67.81
69780;BME280;57052;55.602;38.096;2024-01-15T04:30:43;98266.50;;;-4.94;68.35
69780;BME280;57052;55.602;38.096;2024-01-15T04:33:08;98234.41;;;-5.09;68.46
69780;BME280;57052;55.602;38.096;2024-01-15T04:35:34;98254.91;;;-4.93;68.38
69780;BME280;57052;55.602;38.096;2024-01-15T04:38:00;98264.00;;;-4.89;68.46
69780;BME280;57052;55.602;38.096;2024-01-15T04:40:25;98262.19;;;-4.89;68.60
69780;BME280;57052;55.602;38.096;2024-01-15T04:42:54;98264.38;;;-4.86;68.37
69780;BME280;57052;55.602;38.096;2024-01-15T04:45:20;98253.63;;;-4.84;68.46
69780;BME280;57052;55.602;38.096;2024-01-15T04:47:48;98251.19;;;-4.86;68.64
69780;BME280;57052;55.602;38.096;2024-01-15T04:50:15;98272.22;;;-4.79;68.45
69780;BME280;57052;55.602;38.096;2024-01-15T04:52:41;98268.53;;;-4.78;68.70
69780;BME280;57052;55.602;38.096;2024-01-15T04:55:06;98252.28;;;-4.75;68.67
69780;BME280;57052;55.602;38.096;2024-01-15T04:57:32;98261.25;;;-4.76;68.85
69780;BME280;57052;55.602;38.096;2024-01-15T04:59:58;98239.59;;;-4.85;68.95
69780;BME280;57052;55.602;38.096;2024-01-15T05:02:24;98259.53;;;-4.71;69.09
69780;BME280;57052;55.602;38.096;2024-01-15T05:04:50;98262.78;;;-4.69;69.06
69780;BME280;57052;55.602;38.096;2024-01-15T05:07:16;98255.06;;;-4.70;69.03
69780;BME280;57052;55.602;38.096;2024-01-15T05:09:41;98251.75;;;-4.66;69.15
69780;BME280;57052;55.602;38.096;2024-01-15T05:12:07;98249.28;;;-4.61;69.31
69780;BME280;57052;55.602;38.096;2024-01-15T05:14:33;98257.56;;;-4.57;68.97
69780;BME280;57052;55.602;38.096;2024-01-15T05:16:59;98243.66;;;-4.64;69.32
69780;BME280;57052;55.602;38.096;2024-01-15T05:19:25;98254.84;;;-4.50;69.07
69780;BME280;57052;55.602;38.096;2024-01-15T05:21:50;98245.31;;;-4.51;69.34
69780;BME280;57052;55.602;38.096;2024-01-15T05:24:16;98254.78;;;-4.44;69.20
69780;BME280;57052;55.602;38.096;2024-01-15T05:26:42;98246.63;;;-4.42;69.17
69780;BME280;57052;55.602;38.096;2024-01-15T05:29:07;98238.78;;;-4.49;69.34
69780;BME280;57052;55.602;38.096;2024-01-15T05:31:33;98247.00;;;-4.39;69.37
69780;BME280;57052;55.602;38.096;2024-01-15T05:34:01;98248.00;;;-4.40;69.28
69780;BME280;57052;55.602;38.096;2024-01-15T05:36:26;98247.94;;;-4.33;69.22
69780;BME280;57052;55.602;38.096;2024-01-15T05:38:52;98240.03;;;-4.33;69.35
69780;BME280;57052;55.602;38.096;2024-01-15T05:41:18;98255.19;;;-4.29;69.34
69780;BME280;57052;55.602;38.096;2024-01-15T05:43:44;98235.09;;;-4.30;69.66
69780;BME280;57052;55.602;38.096;2024-01-15T05:46:09;98238.31;;;-4.28;69.96
69780;BME280;57052;55.602;38.096;2024-01-15T05:48:35;98245.53;;;-4.23;69.77
69780;BME280;57052;55.602;38.096;2024-01-15T05:51:01;98248.56;;;-4.20;69.93
69780;BME280;57052;55.602;38.096;2024-01-15T05:53:27;98255.22;;;-4.17;70.13
69780;BME280;57052;55.602;38.096;2024-01-15T05:55:53;98234.19;;;-4.24;69.98
69780;BME280;57052;55.602;38.096;2024-01-15T05:58:21;98248.13;;;-4.17;69.87
69780;BME280;57052;55.602;38.096;2024-01-15T06:00:47;98244.00;;;-4.13;69.78
69780;BME280;57052;55.602;38.096;2024-01-15T06:03:13;98242.28;;;-4.07;69.54
69780;BME280;57052;55.602;38.096;2024-01-15T06:05:39;98241.47;;;-4.08;69.95
69780;BME280;57052;55.602;38.096;2024-01-15T06:08:05;98246.91;;;-4.03;69.81
69780;BME280;57052;55.602;38.096;2024-01-15T06:10:31;98244.84;;;-4.01;69.72
69780;BME280;57052;55.602;38.096;2024-01-15T06:12:56;98246.44;;;-4.00;70.08
69780;BME280;57052;55.602;38.096;2024-01-15T06:15:22;98241.63;;;-4.03;70.02
69780;BME280;57052;55.602;38.096;2024-01-15T06:17:48;98239.41;;;-4.06;70.23
69780;BME280;57052;55.602;38.096;2024-01-15T06:20:13;98242.91;;;-3.94;70.17
69780;BME280;57052;55.602;38.096;2024-01-15T06:22:39;98247.28;;;-3.88;70.25
69780;BME280;57052;55.602;38.096;2024-01-15T06:25:07;98245.81;;;-3.83;70.16
69780;BME280;57052;55.602;38.096;2024-01-15T06:27:33;98227.97;;;-3.88;70.11
69780;BME280;57052;55.602;38.096;2024-01-15T06:29:59;98245.47;;;-3.75;70.12
69780;BME280;57052;55.602;38.096;2024-01-15T06:32:24;98234.78;;;-3.80;70.09
69780;BME280;57052;55.602;38.096;2024-01-15T06:34:50;98239.06;;;-3.68;69.82
69780;BME280;57052;55.602;38.096;2024-01-15T06:37:16;98223.75;;;-3.77;69.76
69780;BME280;57052;55.602;38.096;2024-01-15T06:39:44;98242.63;;;-3.62;69.94
69780;BME280;57052;55.602;38.096;2024-01-15T06:42:09;98242.44;;;-3.61;69.95
69780;BME280;57052;55.602;38.096;2024-01-15T06:44:35;98248.03;;;-3.57;70.28
69780;BME280;57052;55.602;38.096;2024-01-15T06:47:01;98247.47;;;-3.59;69.84
69780;BME280;57052;55.602;38.096;2024-01-15T06:49:29;98254.03;;;-3.50;69.83
69780;BME280;57052;55.602;38.096;2024-01-15T06:51:55;98256.03;;;-3.46;70.11
69780;BME280;57052;55.602;38.096;2024-01-15T06:54:21;98249.69;;;-3.45;70.33
69780;BME280;57052;55.602;38.096;2024-01-15T06:56:47;98244.97;;;-3.43;70.17
69780;BME280;57052;55.602;38.096;2024-01-15T06:59:13;98250.81;;;-3.41;70.21
69780;BME280;57052;55.602;38.096;2024-01-15T07:01:39;98253.00;;;-3.38;69.79
69780;BME280;57052;55.602;38.096;2024-01-15T07:06:50;98258.78;;;-3.29;69.69
69780;BME280;57052;55.602;38.096;2024-01-15T07:09:16;98239.34;;;-3.35;70.29
69780;BME280;57052;55.602;38.096;2024-01-15T07:11:46;98252.56;;;-3.23;69.97
69780;BME280;57052;55.602;38.096;2024-01-15T07:14:12;98254.19;;;-3.22;70.13
69780;BME280;57052;55.602;38.096;2024-01-15T07:16:38;98249.00;;;-3.17;69.76
69780;BME280;57052;55.602;38.096;2024-01-15T07:19:04;98256.50;;;-3.14;70.21
69780;BME280;57052;55.602;38.096;2024-01-15T07:21:30;98239.94;;;-3.21;70.38
69780;BME280;57052;55.602;38.096;2024-01-15T07:23:56;98237.63;;;-3.17;70.01
69780;BME280;57052;55.602;38.096;2024-01-15T07:26:22;98250.88;;;-3.06;70.32
69780;BME280;57052;55.602;38.096;2024-01-15T07:28:48;98234.28;;;-3.13;70.18
69780;BME280;57052;55.602;38.096;2024-01-15T07:31:16;98243.94;;;-3.07;69.98
69780;BME280;57052;55.602;38.096;2024-01-15T07:33:41;98248.53;;;-3.02;70.49
69780;BME280;57052;55.602;38.096;2024-01-15T07:36:07;98246.47;;;-3.00;70.01
69780;BME280;57052;55.602;38.096;2024-01-15T07:38:33;98241.41;;;-3.02;70.31
69780;BME280;57052;55.602;38.096;2024-01-15T07:40:59;98254.41;;;-2.89;70.62
69780;BME280;57052;55.602;38.096;2024-01-15T07:43:24;98246.22;;;-2.87;70.20
69780;BME280;57052;55.602;38.096;2024-01-15T07:45:50;98246.91;;;-2.80;70.58
69780;BME280;57052;55.602;38.096;2024-01-15T07:48:16;98250.72;;;-2.76;69.98
69780;BME280;57052;55.602;38.096;2024-01-15T07:50:41;98248.38;;;-2.73;69.96
69780;BME280;57052;55.602;38.096;2024-01-15T07:53:07;98245.28;;;-2.70;70.59
69780;BME280;57052;55.602;38.096;2024-01-15T07:55:33;98239.88;;;-2.75;70.28
69780;BME280;57052;55.602;38.096;2024-01-15T07:57:58;98242.19;;;-2.67;70.54
69780;BME280;57052;55.602;38.096;2024-01-15T08:00:25;98231.03;;;-2.69;69.89
69780;BME280;57052;55.602;38.096;2024-01-15T08:02:51;98235.59;;;-2.64;70.46
69780;BME280;57052;55.602;38.096;2024-01-15T08:05:18;98254.00;;;-2.58;69.94
69780;BME280;57052;55.602;38.096;2024-01-15T08:07:44;98251.47;;;-2.52;70.55
69780;BME280;57052;55.602;38.096;2024-01-15T08:10:10;98248.09;;;-2.48;69.98
69780;BME280;57052;55.602;38.096;2024-01-15T08:12:36;98255.13;;;-2.42;70.45
69780;BME280;57052;55.602;38.096;2024-01-15T08:15:01;98258.34;;;-2.40;70.49
69780;BME280;57052;55.602;38.096;2024-01-15T08:20:11;98249.47;;;-2.34;69.95
69780;BME280;57052;55.602;38.096;2024-01-15T08:22:38;98251.06;;;-2.33;70.18
69780;BME280;57052;55.602;38.096;2024-01-15T08:25:04;98233.00;;;-2.36;69.68
69780;BME280;57052;55.602;38.096;2024-01-15T08:27:30;98248.28;;;-2.26;70.18
69780;BME280;57052;55.602;38.096;2024-01-15T08:29:56;98226.75;;;-2.30;69.95
69780;BME280;57052;55.602;38.096;2024-01-15T08:32:22;98243.19;;;-2.16;70.11
69780;BME280;57052;55.602;38.096;2024-01-15T08:34:47;98220.41;;;-2.29;69.76
69780;BME280;57052;55.602;38.096;2024-01-15T08:37:16;98239.56;;;-2.10;69.58
69780;BME280;57052;55.602;38.096;2024-01-15T08:39:41;98232.69;;;-2.11;70.04
69780;BME280;57052;55.602;38.096;2024-01-15T08:42:07;98230.50;;;-2.14;69.79
69780;BME280;57052;55.602;38.096;2024-01-15T08:44:51;98247.06;;;-2.07;70.00
69780;BME280;57052;55.602;38.096;2024-01-15T08:47:17;98243.59;;;-2.08;69.66
69780;BME280;57052;55.602;38.096;2024-01-15T08:49:43;98246.59;;;-2.04;69.87
69780;BME280;57052;55.602;38.096;2024-01-15T08:52:10;98239.09;;;-2.07;69.98
69780;BME280;57052;55.602;38.096;2024-01-15T08:54:36;98247.59;;;-1.93;69.55
69780;BME280;57052;55.602;38.096;2024-01-15T08:57:02;98244.69;;;-1.92;69.99
69780;BME280;57052;55.602;38.096;2024-01-15T08:59:27;98241.56;;;-1.89;70.05
69780;BME280;57052;55.602;38.096;2024-01-15T09:01:54;98249.06;;;-1.86;70.24
69780;BME280;57052;55.602;38.096;2024-01-15T09:04:23;98248.56;;;-1.83;69.66
69780;BME280;57052;55.602;38.096;2024-01-15T09:06:48;98241.66;;;-1.84;69.95
69780;BME280;57052;55.602;38.096;2024-01-15T09:09:14;98255.56;;;-1.77;69.71
69780;BME280;57052;55.602;38.096;2024-01-15T09:11:40;98244.41;;;-1.79;70.12
69780;BME280;57052;55.602;38.096;2024-01-15T09:14:06;98250.03;;;-1.75;69.84
69780;BME280;57052;55.602;38.096;2024-01-15T09:16:33;98260.00;;;-1.66;69.76
69780;BME280;57052;55.602;38.096;2024-01-15T09:18:59;98245.94;;;-1.66;69.65
69780;BME280;57052;55.602;38.096;2024-01-15T09:21:25;98209.66;;;-1.94;69.32
69780;BME280;57052;55.602;38.096;2024-01-15T09:23:51;98248.81;;;-1.68;69.50
69780;BME280;57052;55.602;38.096;2024-01-15T09:26:17;98222.06;;;-1.83;69.51
69780;BME280;57052;55.602;38.096;2024-01-15T09:28:43;98248.34;;;-1.65;69.72
69780;BME280;57052;55.602;38.096;2024-01-15T09:31:08;98242.13;;;-1.70;69.63
69780;BME280;57052;55.602;38.096;2024-01-15T09:33:34;98242.38;;;-1.72;69.76
69780;BME280;57052;55.602;38.096;2024-01-15T09:36:03;98232.22;;;-1.63;69.63
69780;BME280;57052;55.602;38.096;2024-01-15T09:38:32;98242.66;;;-1.57;68.86
69780;BME280;57052;55.602;38.096;2024-01-15T09:40:58;98224.25;;;-1.63;69.27
69780;BME280;57052;55.602;38.096;2024-01-15T09:43:24;98240.25;;;-1.58;69.25
69780;BME280;57052;55.602;38.096;2024-01-15T09:45:50;98235.50;;;-1.56;69.30
69780;BME280;57052;55.602;38.096;2024-01-15T09:48:17;98246.50;;;-1.48;69.27
69780;BME280;57052;55.602;38.096;2024-01-15T09:50:43;98221.59;;;-1.63;69.33
69780;BME280;57052;55.602;38.096;2024-01-15T09:53:09;98241.69;;;-1.51;69.17
69780;BME280;57052;55.602;38.096;2024-01-15T09:55:38;98250.53;;;-1.45;69.17
69780;BME280;57052;55.602;38.096;2024-01-15T09:58:04;98235.09;;;-1.48;69.13
69780;BME280;57052;55.602;38.096;2024-01-15T10:00:30;98233.81;;;-1.46;69.07
69780;BME280;57052;55.602;38.096;2024-01-15T10:02:58;98252.13;;;-1.27;68.84
69780;BME280;57052;55.602;38.096;2024-01-15T10:05:43;98243.69;;;-1.24;69.20
69780;BME280;57052;55.602;38.096;2024-01-15T10:08:09;98249.88;;;-1.19;68.68
69780;BME280;57052;55.602;38.096;2024-01-15T10:10:36;98250.94;;;-1.20;68.66
69780;BME280;57052;55.602;38.096;2024-01-15T10:13:04;98250.16;;;-1.20;69.03
69780;BME280;57052;55.602;38.096;2024-01-15T10:15:34;98250.44;;;-1.17;68.59
69780;BME280;57052;55.602;38.096;2024-01-15T10:18:02;98228.50;;;-1.29;68.68
69780;BME280;57052;55.602;38.096;2024-01-15T10:20:28;98242.47;;;-1.17;68.67
69780;BME280;57052;55.602;38.096;2024-01-15T10:22:55;98240.38;;;-1.15;68.40
69780;BME280;57052;55.602;38.096;2024-01-15T10:25:21;98238.94;;;-1.22;68.28
69780;BME280;57052;55.602;38.096;2024-01-15T10:28:01;98238.31;;;-1.13;68.77
69780;BME280;57052;55.602;38.096;2024-01-15T10:30:27;98246.03;;;-1.11;68.57
69780;BME280;57052;55.602;38.096;2024-01-15T10:33:00;98244.41;;;-1.12;68.73
69780;BME280;57052;55.602;38.096;2024-01-15T10:35:27;98236.38;;;-1.17;69.04
69780;BME280;57052;55.602;38.096;2024-01-15T10:37:53;98241.53;;;-1.11;68.78
69780;BME280;57052;55.602;38.096;2024-01-15T10:40:20;98235.41;;;-1.11;68.71
69780;BME280;57052;55.602;38.096;2024-01-15T10:42:45;98232.81;;;-1.06;68.15
69780;BME280;57052;55.602;38.096;2024-01-15T10:45:13;98242.22;;;-0.99;68.59
69780;BME280;57052;55.602;38.096;2024-01-15T10:47:40;98225.19;;;-1.03;68.47
69780;BME280;57052;55.602;38.096;2024-01-15T10:50:07;98236.19;;;-0.94;68.72
69780;BME280;57052;55.602;38.096;2024-01-15T10:52:35;98237.00;;;-0.94;68.70
69780;BME280;57052;55.602;38.096;2024-01-15T10:55:05;98240.13;;;-0.97;68.63
69780;BME280;57052;55.602;38.096;2024-01-15T10:57:30;98232.41;;;-0.98;68.76
69780;BME280;57052;55.602;38.096;2024-01-15T10:59:56;98238.28;;;-0.96;68.58
69780;BME280;57052;55.602;38.096;2024-01-15T11:02:25;98237.66;;;-1.03;68.96
69780;BME280;57052;55.602;38.096;2024-01-15T11:04:51;98236.66;;;-0.97;69.19
69780;BME280;57052;55.602;38.096;2024-01-15T11:07:21;98227.91;;;-0.98;68.87
69780;BME280;57052;55.602;38.096;2024-01-15T11:09:50;98234.88;;;-0.92;68.47
69780;BME280;57052;55.602;38.096;2024-01-15T11:12:17;98238.03;;;-0.95;68.68
69780;BME280;57052;55.602;38.096;2024-01-15T11:14:47;98229.56;;;-0.92;68.81
69780;BME280;57052;55.602;38.096;2024-01-15T11:17:14;98229.09;;;-0.89;68.79
69780;BME280;57052;55.602;38.096;2024-01-15T11:19:48;98222.50;;;-0.86;68.99
69780;BME280;57052;55.602;38.096;2024-01-15T11:24:55;98207.03;;;-0.89;68.73
69780;BME280;57052;55.602;38.096;2024-01-15T11:27:40;98220.47;;;-0.79;68.42
69780;BME280;57052;55.602;38.096;2024-01-15T11:30:14;98221.00;;;-0.77;68.51
69780;BME280;57052;55.602;38.096;2024-01-15T11:32:40;98217.31;;;-0.76;68.40
69780;BME280;57052;55.602;38.096;2024-01-15T11:35:07;98214.72;;;-0.71;68.48
69780;BME280;57052;55.602;38.096;2024-01-15T11:40:44;98184.44;;;-0.92;67.89
69780;BME280;57052;55.602;38.096;2024-01-15T11:43:09;98216.84;;;-0.73;68.18
69780;BME280;57052;55.602;38.096;2024-01-15T11:45:36;98201.53;;;-0.83;68.04
69780;BME280;57052;55.602;38.096;2024-01-15T11:48:14;98217.38;;;-0.71;68.31
69780;BME280;57052;55.602;38.096;2024-01-15T11:50:50;98216.31;;;-0.70;68.32
69780;BME280;57052;55.602;38.096;2024-01-15T11:55:52;98209.78;;;-0.63;68.44
69780;BME280;57052;55.602;38.096;2024-01-15T11:58:22;98211.75;;;-0.75;68.25
69780;BME280;57052;55.602;38.096;2024-01-15T12:00:48;98198.09;;;-0.83;68.25
69780;BME280;57052;55.602;38.096;2024-01-15T12:03:22;98218.25;;;-0.66;68.54
69780;BME280;57052;55.602;38.096;2024-01-15T12:05:48;98218.25;;;-0.66;68.42
69780;BME280;57052;55.602;38.096;2024-01-15T12:08:14;98219.84;;;-0.65;68.81
69780;BME280;57052;55.602;38.096;2024-01-15T12:10:40;98216.91;;;-0.68;68.53
69780;BME280;57052;55.602;38.096;2024-01-15T12:13:13;98211.44;;;-0.78;68.83
69780;BME280;57052;55.602;38.096;2024-01-15T12:15:40;98199.63;;;-0.87;68.46
69780;BME280;57052;55.602;38.096;2024-01-15T12:18:11;98214.09;;;-0.78;68.60
69780;BME280;57052;55.602;38.096;2024-01-15T12:20:37;98224.06;;;-0.69;68.78
69780;BME280;57052;55.602;38.096;2024-01-15T12:23:03;98204.25;;;-0.78;68.97
69780;BME280;57052;55.602;38.096;2024-01-15T12:25:33;98213.44;;;-0.69;68.93
69780;BME280;57052;55.602;38.096;2024-01-15T12:28:00;98215.03;;;-0.68;68.90
69780;BME280;57052;55.602;38.096;2024-01-15T12:30:27;98202.69;;;-0.79;68.79
69780;BME280;57052;55.602;38.096;2024-01-15T12:32:53;98212.56;;;-0.74;69.26
69780;BME280;57052;55.602;38.096;2024-01-15T12:35:18;98214.72;;;-0.71;68.74
69780;BME280;57052;55.602;38.096;2024-01-15T12:37:44;98220.84;;;-0.71;68.96
69780;BME280;57052;55.602;38.096;2024-01-15T12:40:13;98178.25;;;-0.97;69.08
69780;BME280;57052;55.602;38.096;2024-01-15T12:42:44;98216.03;;;-0.74;68.93
69780;BME280;57052;55.602;38.096;2024-01-15T12:45:11;98226.16;;;-0.71;69.09
69780;BME280;57052;55.602;38.096;2024-01-15T12:47:39;98225.34;;;-0.71;69.45
69780;BME280;57052;55.602;38.096;2024-01-15T12:50:12;98228.00;;;-0.71;69.30
69780;BME280;57052;55.602;38.096;2024-01-15T12:52:40;98203.97;;;-0.81;69.34
69780;BME280;57052;55.602;38.096;2024-01-15T12:55:07;98211.44;;;-0.78;69.02
69780;BME280;57052;55.602;38.096;2024-01-15T12:57:37;98217.88;;;-0.74;69.65
69780;BME280;57052;55.602;38.096;2024-01-15T13:00:04;98224.22;;;-0.75;69.32